Time;durP1;ratioP1;P1;durP2;ratioP2;P2;SDS_P1;SDS_P2;PMS_P1;PMS_P2;Temp;Humidity;BMP_temperature;BMP_pressure;BME280_temperature;BME280_humidity;BME280_pressure;Samples;Min_cycle;Max_cycle;Signal;HPM_P1;HPM_P2
2021/06/16 00:02:03;;;;;;;8.00;5.53;;;;;;;;;;5102251;27;20106;-55
2021/06/16 00:04:28;;;;;;;6.32;4.80;;;;;;;;;;5101056;28;20042;-53
2021/06/16 00:06:55;;;;;;;6.90;6.30;;;;;;;;;;5107520;27;20411;-53
2021/06/16 00:09:21;;;;;;;10.18;4.95;;;;;;;;;;5106149;27;20067;-55
2021/06/16 00:11:46;;;;;;;5.55;4.43;;;;;;;;;;5105059;27;20111;-55
2021/06/16 00:14:11;;;;;;;6.78;5.78;;;;;;;;;;5107663;27;20847;-55
2021/06/16 00:16:37;;;;;;;10.68;7.00;;;;;;;;;;5105869;27;20020;-54
2021/06/16 00:19:02;;;;;;;10.70;7.10;;;;;;;;;;5104201;27;20653;-54
2021/06/16 00:21:28;;;;;;;5.85;5.05;;;;;;;;;;5103033;27;20130;-54
2021/06/16 00:23:53;;;;;;;8.82;5.40;;;;;;;;;;5102201;27;20022;-54
2021/06/16 00:26:18;;;;;;;5.93;4.85;;;;;;;;;;5111567;27;20074;-53
2021/06/16 00:28:44;;;;;;;12.20;6.20;;;;;;;;;;5108193;27;20115;-53
2021/06/16 00:31:10;;;;;;;12.32;4.63;;;;;;;;;;5098259;28;20066;-53
2021/06/16 00:33:35;;;;;;;6.82;4.82;;;;;;;;;;5104524;27;20055;-54
2021/06/16 00:36:00;;;;;;;5.72;3.85;;;;;;;;;;5104175;27;20502;-51
2021/06/16 00:38:26;;;;;;;5.47;4.97;;;;;;;;;;5098956;27;20449;-53
2021/06/16 00:40:52;;;;;;;15.27;5.72;;;;;;;;;;5098587;28;20011;-51
2021/06/16 00:43:17;;;;;;;6.60;4.28;;;;;;;;;;5097741;28;20028;-54
2021/06/16 00:45:42;;;;;;;6.15;4.70;;;;;;;;;;5103169;27;20024;-52
2021/06/16 00:48:08;;;;;;;6.88;5.28;;;;;;;;;;5100085;28;20689;-53
2021/06/16 00:50:34;;;;;;;4.70;4.25;;;;;;;;;;5103502;27;20027;-53
2021/06/16 00:53:00;;;;;;;3.70;3.30;;;;;;;;;;5101434;28;20035;-53
2021/06/16 00:55:25;;;;;;;5.15;3.88;;;;;;;;;;5096865;28;20016;-53
2021/06/16 00:57:51;;;;;;;5.10;3.95;;;;;;;;;;5097374;28;20611;-51
2021/06/16 01:00:21;;;;;;;4.95;4.45;;;;;;;;;;5107320;27;20027;-53
2021/06/16 01:02:46;;;;;;;6.35;4.85;;;;;;;;;;5105357;28;20076;-53
2021/06/16 01:05:12;;;;;;;7.72;4.30;;;;;;;;;;5107762;27;20380;-52
2021/06/16 01:07:40;;;;;;;6.43;4.05;;;;;;;;;;5107757;27;20056;-50
2021/06/16 01:10:05;;;;;;;4.97;3.40;;;;;;;;;;5100170;28;20032;-50
2021/06/16 01:12:43;;;;;;;5.47;4.20;;;;;;;;;;5103368;28;20036;-49
2021/06/16 01:15:22;;;;;;;5.88;4.55;;;;;;;;;;5097830;28;20095;-51
2021/06/16 01:17:48;;;;;;;12.13;4.68;;;;;;;;;;5100233;28;20012;-52
2021/06/16 01:20:32;;;;;;;8.27;4.97;;;;;;;;;;5099992;28;20719;-51
2021/06/16 01:22:58;;;;;;;3.97;3.10;;;;;;;;;;5104543;28;20016;-52
2021/06/16 01:25:36;;;;;;;5.47;3.92;;;;;;;;;;5102117;27;20026;-52
2021/06/16 01:28:02;;;;;;;5.40;3.90;;;;;;;;;;5098524;28;20115;-51
2021/06/16 01:30:29;;;;;;;13.70;4.10;;;;;;;;;;5102241;28;20114;-50
2021/06/16 01:32:55;;;;;;;5.22;3.95;;;;;;;;;;5099198;28;20020;-52
2021/06/16 01:35:20;;;;;;;8.88;4.53;;;;;;;;;;5100864;27;20574;-51
2021/06/16 01:37:46;;;;;;;5.97;4.40;;;;;;;;;;5105043;28;20023;-52
2021/06/16 01:40:12;;;;;;;5.70;3.97;;;;;;;;;;5103598;28;20103;-53
2021/06/16 01:42:39;;;;;;;5.90;4.85;;;;;;;;;;5103906;28;20494;-50
2021/06/16 01:45:05;;;;;;;4.03;3.05;;;;;;;;;;5104822;28;20039;-53
2021/06/16 01:47:30;;;;;;;11.40;4.18;;;;;;;;;;5100387;28;20513;-54
2021/06/16 01:49:58;;;;;;;8.75;4.75;;;;;;;;;;5101084;27;20082;-50
2021/06/16 01:52:24;;;;;;;8.45;5.18;;;;;;;;;;5096883;28;20123;-53
2021/06/16 01:54:50;;;;;;;7.68;4.93;;;;;;;;;;5101240;27;20019;-52
2021/06/16 01:57:17;;;;;;;7.07;5.07;;;;;;;;;;5102448;27;20144;-51
2021/06/16 01:59:43;;;;;;;8.43;4.75;;;;;;;;;;5104552;27;20023;-52
2021/06/16 02:02:09;;;;;;;6.38;5.25;;;;;;;;;;5106271;27;20443;-52
2021/06/16 02:04:35;;;;;;;9.10;4.07;;;;;;;;;;5105819;27;20054;-52
2021/06/16 02:07:05;;;;;;;5.35;4.53;;;;;;;;;;5106092;27;20056;-53
2021/06/16 02:09:32;;;;;;;6.18;3.78;;;;;;;;;;5109538;27;20023;-51
2021/06/16 02:11:58;;;;;;;5.50;3.92;;;;;;;;;;5106651;27;20019;-50
2021/06/16 02:14:24;;;;;;;13.30;5.50;;;;;;;;;;5100428;27;20016;-52
2021/06/16 02:16:51;;;;;;;6.45;5.07;;;;;;;;;;5105557;27;20081;-51
2021/06/16 02:19:21;;;;;;;9.98;4.93;;;;;;;;;;5104183;27;20020;-53
2021/06/16 02:21:47;;;;;;;6.20;4.00;;;;;;;;;;5104315;27;20019;-49
2021/06/16 02:24:12;;;;;;;4.85;3.85;;;;;;;;;;5105560;27;20018;-47
2021/06/16 02:26:38;;;;;;;4.72;3.65;;;;;;;;;;5104031;27;20072;-49
2021/06/16 02:29:07;;;;;;;8.25;3.08;;;;;;;;;;5102420;27;20032;-51
2021/06/16 02:31:33;;;;;;;15.63;4.57;;;;;;;;;;5103225;27;20020;-52
2021/06/16 02:33:59;;;;;;;5.68;3.53;;;;;;;;;;5106112;27;20023;-53
2021/06/16 02:36:25;;;;;;;6.07;4.45;;;;;;;;;;5110026;27;20011;-54
2021/06/16 02:38:53;;;;;;;4.60;3.95;;;;;;;;;;5108958;27;20020;-52
2021/06/16 02:41:18;;;;;;;5.43;4.32;;;;;;;;;;5107292;27;20012;-53
2021/06/16 02:43:44;;;;;;;5.60;3.85;;;;;;;;;;5102110;27;20027;-53
2021/06/16 02:46:10;;;;;;;6.28;3.85;;;;;;;;;;5098390;27;20435;-50
2021/06/16 02:48:37;;;;;;;3.30;3.00;;;;;;;;;;5103349;27;20054;-52
2021/06/16 02:51:03;;;;;;;4.53;3.72;;;;;;;;;;5111950;27;20026;-52
2021/06/16 02:53:29;;;;;;;3.88;2.90;;;;;;;;;;5114746;27;20020;-52
2021/06/16 02:55:55;;;;;;;5.95;4.05;;;;;;;;;;5107902;27;20024;-51
2021/06/16 02:58:21;;;;;;;7.43;4.50;;;;;;;;;;5104378;27;20434;-49
2021/06/16 03:00:51;;;;;;;4.45;4.05;;;;;;;;;;5105016;27;20034;-49
2021/06/16 03:03:18;;;;;;;5.40;3.15;;;;;;;;;;5100586;27;20022;-50
2021/06/16 03:05:44;;;;;;;5.85;3.55;;;;;;;;;;5098734;27;20043;-53
2021/06/16 03:08:10;;;;;;;11.75;3.00;;;;;;;;;;5104713;27;20555;-52
2021/06/16 03:10:35;;;;;;;7.03;3.88;;;;;;;;;;5104419;27;20063;-53
2021/06/16 03:13:04;;;;;;;3.67;3.10;;;;;;;;;;5104786;27;20103;-53
2021/06/16 03:15:30;;;;;;;5.47;3.63;;;;;;;;;;5101569;27;20028;-52
2021/06/16 03:17:57;;;;;;;3.97;3.53;;;;;;;;;;5098778;27;20016;-49
2021/06/16 03:20:24;;;;;;;5.30;3.65;;;;;;;;;;5101773;27;20107;-51
2021/06/16 03:22:50;;;;;;;3.28;2.92;;;;;;;;;;5110114;27;20016;-48
2021/06/16 03:25:16;;;;;;;5.03;4.40;;;;;;;;;;5115642;27;20031;-52
2021/06/16 03:27:42;;;;;;;6.63;5.43;;;;;;;;;;5110483;27;20482;-51
2021/06/16 03:30:08;;;;;;;7.15;4.65;;;;;;;;;;5110658;27;20020;-51
2021/06/16 03:32:35;;;;;;;6.43;3.72;;;;;;;;;;5105992;27;20081;-48
2021/06/16 03:35:00;;;;;;;4.93;4.18;;;;;;;;;;5105056;27;20479;-51
2021/06/16 03:37:26;;;;;;;7.63;5.78;;;;;;;;;;5101718;27;20043;-52
2021/06/16 03:39:52;;;;;;;3.17;2.80;;;;;;;;;;5101210;27;20011;-52
2021/06/16 03:42:19;;;;;;;7.20;4.35;;;;;;;;;;5099038;27;20020;-52
2021/06/16 03:44:45;;;;;;;8.30;3.10;;;;;;;;;;5100458;27;20028;-48
2021/06/16 03:47:11;;;;;;;5.00;3.78;;;;;;;;;;5103212;27;20506;-50
2021/06/16 03:49:38;;;;;;;3.83;2.95;;;;;;;;;;5105143;27;20049;-52
2021/06/16 03:52:04;;;;;;;8.00;4.95;;;;;;;;;;5103636;27;20019;-50
2021/06/16 03:54:29;;;;;;;3.38;3.08;;;;;;;;;;5101125;27;20104;-51
2021/06/16 03:56:55;;;;;;;4.78;3.40;;;;;;;;;;5105989;27;20145;-49
2021/06/16 03:59:21;;;;;;;6.18;3.97;;;;;;;;;;5110628;27;20035;-49
2021/06/16 04:01:46;;;;;;;4.32;3.92;;;;;;;;;;5103739;27;20007;-49
2021/06/16 04:04:12;;;;;;;5.00;3.53;;;;;;;;;;5105821;27;20019;-53
2021/06/16 04:06:40;;;;;;;4.50;3.83;;;;;;;;;;5101922;27;20427;-51
2021/06/16 04:09:06;;;;;;;5.72;5.07;;;;;;;;;;5102183;27;20036;-51
2021/06/16 04:11:32;;;;;;;4.88;3.38;;;;;;;;;;5101852;27;20480;-51
2021/06/16 04:13:58;;;;;;;5.63;4.20;;;;;;;;;;5108304;27;20046;-53
2021/06/16 04:16:25;;;;;;;3.65;3.20;;;;;;;;;;5096753;27;20051;-52
2021/06/16 04:18:50;;;;;;;4.38;3.97;;;;;;;;;;5099835;27;20024;-51
2021/06/16 04:21:16;;;;;;;5.90;5.00;;;;;;;;;;5106093;27;20467;-47
2021/06/16 04:23:41;;;;;;;10.48;4.90;;;;;;;;;;5106791;27;20059;-54
2021/06/16 04:26:06;;;;;;;3.90;3.55;;;;;;;;;;5102854;27;20125;-53
2021/06/16 04:28:31;;;;;;;5.68;4.05;;;;;;;;;;5097171;27;20028;-49
2021/06/16 04:30:57;;;;;;;5.32;4.82;;;;;;;;;;5098402;27;20193;-48
2021/06/16 04:33:22;;;;;;;4.82;3.83;;;;;;;;;;5102845;27;20015;-52
2021/06/16 04:35:47;;;;;;;5.15;4.63;;;;;;;;;;5099655;28;20027;-52
2021/06/16 04:38:13;;;;;;;7.85;4.88;;;;;;;;;;5107409;27;20016;-53
2021/06/16 04:40:38;;;;;;;5.28;4.35;;;;;;;;;;5104694;27;20030;-53
2021/06/16 04:43:03;;;;;;;7.70;4.25;;;;;;;;;;5104371;27;20027;-53
2021/06/16 04:45:29;;;;;;;4.10;3.70;;;;;;;;;;5101475;27;20028;-53
2021/06/16 04:47:54;;;;;;;5.65;4.28;;;;;;;;;;5101695;27;20024;-53
2021/06/16 04:50:19;;;;;;;6.72;5.20;;;;;;;;;;5106862;27;20016;-48
2021/06/16 04:52:45;;;;;;;9.98;4.30;;;;;;;;;;5103198;28;20030;-51
2021/06/16 04:55:11;;;;;;;8.23;6.05;;;;;;;;;;5103362;27;20056;-53
2021/06/16 04:57:36;;;;;;;9.57;6.57;;;;;;;;;;5103550;27;20034;-50
2021/06/16 05:00:03;;;;;;;8.68;7.60;;;;;;;;;;5100218;28;20533;-50
2021/06/16 05:02:28;;;;;;;9.20;8.30;;;;;;;;;;5097755;27;20072;-51
2021/06/16 05:04:54;;;;;;;15.40;13.18;;;;;;;;;;5102392;28;20390;-53
2021/06/16 05:07:19;;;;;;;11.05;9.95;;;;;;;;;;5111529;28;20043;-51
2021/06/16 05:09:44;;;;;;;8.90;8.10;;;;;;;;;;5112942;28;20023;-50
2021/06/16 05:12:10;;;;;;;17.58;9.07;;;;;;;;;;5108086;28;20066;-52
2021/06/16 05:14:35;;;;;;;12.50;8.30;;;;;;;;;;5102608;28;20063;-50
2021/06/16 05:17:00;;;;;;;9.77;7.60;;;;;;;;;;5100464;28;20111;-49
2021/06/16 05:19:26;;;;;;;22.42;8.98;;;;;;;;;;5100169;27;20016;-48
2021/06/16 05:21:51;;;;;;;9.23;7.05;;;;;;;;;;5099898;28;20016;-46
2021/06/16 05:24:17;;;;;;;6.88;6.10;;;;;;;;;;5104277;28;20016;-45
2021/06/16 05:26:42;;;;;;;14.68;5.47;;;;;;;;;;5103175;28;20390;-47
2021/06/16 05:29:08;;;;;;;14.23;5.93;;;;;;;;;;5099903;27;20050;-46
2021/06/16 05:31:34;;;;;;;9.40;6.25;;;;;;;;;;5104181;27;20110;-46
2021/06/16 05:33:59;;;;;;;6.22;4.93;;;;;;;;;;5104164;27;20024;-46
2021/06/16 05:36:25;;;;;;;8.20;7.40;;;;;;;;;;5107576;27;20209;-46
2021/06/16 05:38:50;;;;;;;10.15;6.22;;;;;;;;;;5104130;27;20110;-45
2021/06/16 05:41:16;;;;;;;7.95;7.00;;;;;;;;;;5106478;27;20024;-46
2021/06/16 05:43:41;;;;;;;11.73;6.53;;;;;;;;;;5112105;27;20034;-45
2021/06/16 05:46:06;;;;;;;9.10;7.03;;;;;;;;;;5101974;27;20019;-47
2021/06/16 05:48:31;;;;;;;7.28;6.40;;;;;;;;;;5101648;27;20513;-50
2021/06/16 05:50:57;;;;;;;8.25;7.43;;;;;;;;;;5105728;27;20022;-47
2021/06/16 05:53:22;;;;;;;8.93;6.88;;;;;;;;;;5106946;27;20266;-51
2021/06/16 05:55:47;;;;;;;7.38;5.88;;;;;;;;;;5101925;27;20098;-46
2021/06/16 05:58:13;;;;;;;5.70;5.10;;;;;;;;;;5100828;27;20028;-48
2021/06/16 06:00:38;;;;;;;7.40;6.72;;;;;;;;;;5102249;28;20053;-45
2021/06/16 06:03:04;;;;;;;12.55;7.78;;;;;;;;;;5108604;27;20038;-50
2021/06/16 06:05:29;;;;;;;13.23;7.82;;;;;;;;;;5103654;27;20050;-47
2021/06/16 06:07:54;;;;;;;7.85;7.13;;;;;;;;;;5102722;27;20062;-49
2021/06/16 06:10:20;;;;;;;9.07;6.50;;;;;;;;;;5106000;27;20024;-46
2021/06/16 06:12:45;;;;;;;8.20;6.05;;;;;;;;;;5106835;27;20040;-48
2021/06/16 06:15:12;;;;;;;15.27;7.47;;;;;;;;;;5101694;27;20412;-47
2021/06/16 06:17:38;;;;;;;6.63;5.75;;;;;;;;;;5103921;27;20075;-47
2021/06/16 06:20:03;;;;;;;7.50;6.53;;;;;;;;;;5105564;27;20023;-42
2021/06/16 06:22:28;;;;;;;16.52;7.93;;;;;;;;;;5102477;27;20106;-49
2021/06/16 06:24:54;;;;;;;7.85;5.80;;;;;;;;;;5106563;27;20016;-45
2021/06/16 06:27:19;;;;;;;9.85;7.18;;;;;;;;;;5117938;27;20084;-46
2021/06/16 06:29:44;;;;;;;11.43;9.32;;;;;;;;;;5105603;27;20077;-45
2021/06/16 06:32:10;;;;;;;11.60;10.30;;;;;;;;;;5103158;27;20147;-43
2021/06/16 06:34:35;;;;;;;10.93;9.50;;;;;;;;;;5103278;27;20026;-43
2021/06/16 06:37:00;;;;;;;18.95;13.18;;;;;;;;;;5107989;27;20024;-44
2021/06/16 06:39:26;;;;;;;13.10;11.35;;;;;;;;;;5104755;27;20591;-46
2021/06/16 06:41:51;;;;;;;12.43;11.10;;;;;;;;;;5105056;27;20583;-48
2021/06/16 06:44:16;;;;;;;17.08;11.85;;;;;;;;;;5101958;27;20024;-48
2021/06/16 06:46:42;;;;;;;24.35;16.60;;;;;;;;;;5101757;27;20024;-48
2021/06/16 06:49:07;;;;;;;12.82;10.32;;;;;;;;;;5103550;27;20028;-50
2021/06/16 06:51:32;;;;;;;16.80;14.43;;;;;;;;;;5106072;27;20472;-50
2021/06/16 06:53:58;;;;;;;22.77;14.43;;;;;;;;;;5104440;27;20047;-46
2021/06/16 06:56:23;;;;;;;15.30;12.20;;;;;;;;;;5106732;27;20080;-49
2021/06/16 06:58:48;;;;;;;17.98;10.73;;;;;;;;;;5113106;27;20610;-46
2021/06/16 07:01:13;;;;;;;24.67;12.98;;;;;;;;;;5105061;27;20076;-43
2021/06/16 07:03:39;;;;;;;9.60;8.32;;;;;;;;;;5108551;27;20136;-43
2021/06/16 07:06:04;;;;;;;10.55;7.88;;;;;;;;;;5108007;27;20085;-44
2021/06/16 07:08:29;;;;;;;7.85;5.57;;;;;;;;;;5103706;27;20091;-47
2021/06/16 07:10:55;;;;;;;20.63;7.82;;;;;;;;;;5102731;27;20455;-47
2021/06/16 07:13:20;;;;;;;7.88;5.93;;;;;;;;;;5107462;27;20114;-46
2021/06/16 07:15:45;;;;;;;15.60;9.35;;;;;;;;;;5101980;28;20019;-45
2021/06/16 07:18:11;;;;;;;11.80;7.10;;;;;;;;;;5099873;27;20068;-45
2021/06/16 07:20:36;;;;;;;8.27;7.40;;;;;;;;;;5101952;27;20024;-47
2021/06/16 07:23:01;;;;;;;12.52;8.95;;;;;;;;;;5103722;27;20102;-50
2021/06/16 07:25:27;;;;;;;7.45;6.00;;;;;;;;;;5104115;27;20022;-49
2021/06/16 07:27:52;;;;;;;6.80;5.07;;;;;;;;;;5101415;27;20023;-47
2021/06/16 07:30:18;;;;;;;4.38;3.95;;;;;;;;;;5102137;27;20030;-47
2021/06/16 07:32:43;;;;;;;8.18;5.00;;;;;;;;;;5101627;27;20026;-50
2021/06/16 07:35:09;;;;;;;4.97;3.72;;;;;;;;;;5104262;27;20723;-50
2021/06/16 07:37:35;;;;;;;5.22;3.38;;;;;;;;;;5105107;27;20015;-51
2021/06/16 07:40:02;;;;;;;5.78;4.32;;;;;;;;;;5103902;27;20064;-49
2021/06/16 07:42:27;;;;;;;25.58;6.75;;;;;;;;;;5100177;27;20420;-49
2021/06/16 07:44:53;;;;;;;24.98;8.52;;;;;;;;;;5101015;27;20111;-49
2021/06/16 07:47:18;;;;;;;8.07;6.03;;;;;;;;;;5099464;27;20103;-47
2021/06/16 07:49:43;;;;;;;3.75;3.00;;;;;;;;;;5109983;27;20035;-49
2021/06/16 07:52:09;;;;;;;14.13;5.38;;;;;;;;;;5106138;27;20023;-50
2021/06/16 07:54:34;;;;;;;11.85;5.30;;;;;;;;;;5101285;27;20708;-50
2021/06/16 07:56:59;;;;;;;7.07;5.30;;;;;;;;;;5101012;27;20103;-47
2021/06/16 07:59:25;;;;;;;6.45;4.60;;;;;;;;;;5103528;27;20030;-48
2021/06/16 08:01:50;;;;;;;8.07;5.30;;;;;;;;;;5100840;28;20055;-52
2021/06/16 08:04:16;;;;;;;9.93;4.65;;;;;;;;;;5105449;27;20096;-52
2021/06/16 08:06:41;;;;;;;30.02;6.05;;;;;;;;;;5102522;27;20470;-53
2021/06/16 08:09:07;;;;;;;5.97;4.95;;;;;;;;;;5102718;27;20051;-55
2021/06/16 08:11:32;;;;;;;13.05;5.30;;;;;;;;;;5102586;27;20517;-53
2021/06/16 08:13:58;;;;;;;7.43;6.05;;;;;;;;;;5100572;27;20019;-56
2021/06/16 08:16:23;;;;;;;6.72;6.05;;;;;;;;;;5098178;27;20023;-53
2021/06/16 08:18:49;;;;;;;6.15;4.70;;;;;;;;;;5100186;27;20012;-54
2021/06/16 08:21:16;;;;;;;8.02;5.53;;;;;;;;;;5102253;27;20019;-53
2021/06/16 08:23:42;;;;;;;9.48;3.63;;;;;;;;;;5105625;27;20069;-53
2021/06/16 08:26:07;;;;;;;5.50;3.28;;;;;;;;;;5105689;27;20027;-52
2021/06/16 08:28:32;;;;;;;4.80;3.65;;;;;;;;;;5103892;27;20027;-52
2021/06/16 08:30:57;;;;;;;4.43;3.70;;;;;;;;;;5099789;27;20050;-52
2021/06/16 08:33:23;;;;;;;8.65;3.55;;;;;;;;;;5097738;27;20026;-52
2021/06/16 08:35:48;;;;;;;6.35;3.78;;;;;;;;;;5098929;28;20024;-53
2021/06/16 08:38:13;;;;;;;4.15;3.33;;;;;;;;;;5101399;28;20467;-51
2021/06/16 08:40:39;;;;;;;3.17;2.80;;;;;;;;;;5100967;28;20024;-57
2021/06/16 08:43:04;;;;;;;17.02;4.55;;;;;;;;;;5109141;27;20530;-58
2021/06/16 08:45:37;;;;;;;5.35;4.03;;;;;;;;;;5101760;28;20040;-57
2021/06/16 08:48:02;;;;;;;7.93;3.67;;;;;;;;;;5103561;27;20110;-57
2021/06/16 08:50:28;;;;;;;5.38;3.03;;;;;;;;;;5102742;27;20467;-57
2021/06/16 08:52:54;;;;;;;4.40;3.72;;;;;;;;;;5105220;27;20039;-57
2021/06/16 08:55:20;;;;;;;4.60;3.95;;;;;;;;;;5105838;28;20138;-57
2021/06/16 08:57:45;;;;;;;4.03;3.13;;;;;;;;;;5110319;27;20103;-57
2021/06/16 09:00:11;;;;;;;11.18;5.28;;;;;;;;;;5097355;28;20383;-52
2021/06/16 09:02:37;;;;;;;8.45;5.20;;;;;;;;;;5102014;27;20498;-57
2021/06/16 09:05:03;;;;;;;10.55;4.03;;;;;;;;;;5097050;28;20024;-57
2021/06/16 09:07:30;;;;;;;5.50;3.65;;;;;;;;;;5094204;27;20052;-58
2021/06/16 09:10:07;;;;;;;9.15;3.65;;;;;;;;;;5100000;28;20027;-57
2021/06/16 09:12:34;;;;;;;19.23;3.78;;;;;;;;;;5097697;28;20016;-57
2021/06/16 09:14:59;;;;;;;7.75;4.18;;;;;;;;;;5100736;28;20032;-57
2021/06/16 09:17:25;;;;;;;11.18;4.30;;;;;;;;;;5104254;28;20016;-57
2021/06/16 09:19:55;;;;;;;8.65;4.03;;;;;;;;;;5102828;28;20023;-57
2021/06/16 09:22:26;;;;;;;9.43;3.75;;;;;;;;;;5109092;28;20034;-57
2021/06/16 09:24:53;;;;;;;3.67;2.38;;;;;;;;;;5101913;28;20057;-56
2021/06/16 09:27:37;;;;;;;4.55;2.28;;;;;;;;;;5105275;28;20062;-57
2021/06/16 09:30:03;;;;;;;6.25;1.65;;;;;;;;;;5100660;28;20020;-51
2021/06/16 09:32:43;;;;;;;11.48;1.70;;;;;;;;;;5103318;28;20038;-56
2021/06/16 09:35:27;;;;;;;2.55;1.73;;;;;;;;;;5101230;28;20544;-55
2021/06/16 09:37:53;;;;;;;3.90;1.85;;;;;;;;;;5107714;28;20062;-55
2021/06/16 09:40:29;;;;;;;2.05;1.35;;;;;;;;;;5102164;28;20055;-47
2021/06/16 09:42:56;;;;;;;2.67;1.75;;;;;;;;;;5096686;28;20747;-54
2021/06/16 09:45:21;;;;;;;2.15;1.65;;;;;;;;;;5100146;28;20055;-56
2021/06/16 09:47:46;;;;;;;6.68;2.83;;;;;;;;;;5094356;28;20117;-57
2021/06/16 09:50:11;;;;;;;2.30;1.77;;;;;;;;;;5102415;28;20024;-53
2021/06/16 09:52:38;;;;;;;3.83;2.45;;;;;;;;;;5103065;28;20020;-53
2021/06/16 09:55:05;;;;;;;3.58;2.10;;;;;;;;;;5101802;28;20020;-53
2021/06/16 09:57:30;;;;;;;2.05;1.35;;;;;;;;;;5103113;28;20058;-57
2021/06/16 10:00:09;;;;;;;13.75;7.30;;;;;;;;;;5098958;28;20015;-56
2021/06/16 10:02:34;;;;;;;2.25;1.73;;;;;;;;;;5096649;28;20024;-53
2021/06/16 10:05:02;;;;;;;16.08;3.50;;;;;;;;;;5102096;28;20030;-57
2021/06/16 10:07:27;;;;;;;2.65;1.60;;;;;;;;;;5107932;28;20054;-58
2021/06/16 10:09:59;;;;;;;2.33;2.13;;;;;;;;;;5104279;28;20020;-58
2021/06/16 10:12:25;;;;;;;10.23;2.10;;;;;;;;;;5101810;28;20086;-57
2021/06/16 10:14:51;;;;;;;8.95;2.10;;;;;;;;;;5101004;28;20051;-58
2021/06/16 10:17:17;;;;;;;3.15;2.55;;;;;;;;;;5102881;27;20626;-59
2021/06/16 10:19:43;;;;;;;2.92;1.90;;;;;;;;;;5101736;27;20020;-57
2021/06/16 10:22:09;;;;;;;2.88;2.13;;;;;;;;;;5100074;27;20026;-58
2021/06/16 10:24:34;;;;;;;3.38;2.22;;;;;;;;;;5107134;27;20588;-58
2021/06/16 10:27:02;;;;;;;2.78;1.98;;;;;;;;;;5107887;27;20031;-57
2021/06/16 10:29:32;;;;;;;22.58;3.00;;;;;;;;;;5104365;27;20026;-55
2021/06/16 10:32:04;;;;;;;3.78;1.45;;;;;;;;;;5099309;27;20676;-54
2021/06/16 10:34:48;;;;;;;2.30;1.88;;;;;;;;;;5099141;27;20356;-58
2021/06/16 10:37:23;;;;;;;2.85;1.80;;;;;;;;;;5101043;27;20151;-57
2021/06/16 10:40:08;;;;;;;7.60;3.13;;;;;;;;;;5103381;27;20019;-57
2021/06/16 10:42:52;;;;;;;2.53;1.75;;;;;;;;;;5101012;27;20023;-56
2021/06/16 10:45:19;;;;;;;8.57;2.10;;;;;;;;;;5095345;27;20019;-57
2021/06/16 10:47:54;;;;;;;3.85;2.15;;;;;;;;;;5103533;27;20043;-55
2021/06/16 10:50:19;;;;;;;2.60;1.63;;;;;;;;;;5107521;27;20098;-55
2021/06/16 10:53:04;;;;;;;2.22;1.58;;;;;;;;;;5103919;27;20428;-57
2021/06/16 10:55:49;;;;;;;7.95;2.15;;;;;;;;;;5099718;27;20027;-56
2021/06/16 10:58:15;;;;;;;4.13;1.98;;;;;;;;;;5095910;27;20081;-58
2021/06/16 11:00:40;;;;;;;3.75;3.38;;;;;;;;;;5100226;27;20030;-58
2021/06/16 11:03:06;;;;;;;8.85;2.33;;;;;;;;;;5103563;27;20028;-58
2021/06/16 11:05:33;;;;;;;5.65;2.17;;;;;;;;;;5107594;27;20423;-57
2021/06/16 11:08:03;;;;;;;6.82;2.63;;;;;;;;;;5108230;27;20678;-58
2021/06/16 11:10:47;;;;;;;2.30;1.98;;;;;;;;;;5107550;27;20036;-56
2021/06/16 11:13:31;;;;;;;14.73;2.20;;;;;;;;;;5100876;27;20020;-61
2021/06/16 11:15:56;;;;;;;4.95;3.00;;;;;;;;;;5102548;27;20027;-58
2021/06/16 11:18:29;;;;;;;5.15;3.63;;;;;;;;;;5099011;27;20066;-57
2021/06/16 11:20:58;;;;;;;7.22;2.60;;;;;;;;;;5102711;27;20547;-56
2021/06/16 11:23:24;;;;;;;4.95;2.67;;;;;;;;;;5096639;27;20095;-57
2021/06/16 11:25:51;;;;;;;3.47;2.83;;;;;;;;;;5108160;27;20107;-57
2021/06/16 11:28:37;;;;;;;4.35;2.50;;;;;;;;;;5108593;27;20039;-56
2021/06/16 11:31:05;;;;;;;3.13;2.50;;;;;;;;;;5101045;28;20038;-52
2021/06/16 11:33:32;;;;;;;9.13;3.70;;;;;;;;;;5104383;28;20062;-56
2021/06/16 11:35:59;;;;;;;4.70;3.53;;;;;;;;;;5100382;27;20023;-55
2021/06/16 11:38:24;;;;;;;23.00;4.88;;;;;;;;;;5106694;27;20024;-55
2021/06/16 11:40:49;;;;;;;3.20;2.50;;;;;;;;;;5107346;27;20089;-57
2021/06/16 11:43:26;;;;;;;3.42;2.72;;;;;;;;;;5103433;27;20108;-61
2021/06/16 11:45:51;;;;;;;3.88;2.72;;;;;;;;;;5099464;27;20016;-58
2021/06/16 11:48:17;;;;;;;10.73;3.65;;;;;;;;;;5100846;27;20027;-57
2021/06/16 11:50:42;;;;;;;11.70;1.77;;;;;;;;;;5102794;27;20118;-58
2021/06/16 11:53:07;;;;;;;6.82;1.55;;;;;;;;;;5110225;27;20030;-53
2021/06/16 11:55:46;;;;;;;3.25;2.05;;;;;;;;;;5111079;27;20023;-54
2021/06/16 11:58:30;;;;;;;8.52;1.95;;;;;;;;;;5106099;27;20585;-58
2021/06/16 12:01:05;;;;;;;4.18;2.03;;;;;;;;;;5106555;27;20097;-55
2021/06/16 12:03:30;;;;;;;4.10;2.45;;;;;;;;;;5103124;27;20026;-53
2021/06/16 12:06:03;;;;;;;3.75;2.47;;;;;;;;;;5102610;27;20039;-52
2021/06/16 12:08:28;;;;;;;5.60;3.38;;;;;;;;;;5097766;27;20039;-58
2021/06/16 12:10:54;;;;;;;4.82;3.80;;;;;;;;;;5104058;27;20020;-54
2021/06/16 12:13:20;;;;;;;3.08;2.55;;;;;;;;;;5099972;27;20519;-47
2021/06/16 12:15:45;;;;;;;3.42;2.25;;;;;;;;;;5097553;27;20064;-49
2021/06/16 12:18:12;;;;;;;10.82;6.15;;;;;;;;;;5100767;28;20359;-53
2021/06/16 12:20:51;;;;;;;5.43;3.53;;;;;;;;;;5103811;27;20041;-52
2021/06/16 12:23:20;;;;;;;2.72;1.85;;;;;;;;;;5102013;27;20027;-47
2021/06/16 12:25:46;;;;;;;7.00;5.10;;;;;;;;;;5101549;27;20020;-56
2021/06/16 12:28:11;;;;;;;22.38;8.18;;;;;;;;;;5106563;28;20019;-56
2021/06/16 12:30:37;;;;;;;49.65;14.18;;;;;;;;;;5104850;27;20787;-58
2021/06/16 12:33:23;;;;;;;44.10;13.30;;;;;;;;;;5105081;27;20703;-57
2021/06/16 12:36:08;;;;;;;22.08;8.93;;;;;;;;;;5105249;27;20020;-57
2021/06/16 12:38:37;;;;;;;25.75;11.30;;;;;;;;;;5103638;27;20019;-58
2021/06/16 12:41:21;;;;;;;59.45;17.52;;;;;;;;;;5103639;27;20026;-58
2021/06/16 12:43:47;;;;;;;48.95;14.30;;;;;;;;;;5101387;28;20018;-55
2021/06/16 12:46:12;;;;;;;35.25;12.95;;;;;;;;;;5105000;27;20020;-58
2021/06/16 12:48:38;;;;;;;29.00;11.68;;;;;;;;;;5099910;28;20077;-57
2021/06/16 12:51:04;;;;;;;58.85;17.60;;;;;;;;;;5098657;27;20057;-57
2021/06/16 12:53:33;;;;;;;32.60;12.25;;;;;;;;;;5102233;28;20016;-58
2021/06/16 12:56:02;;;;;;;8.10;6.13;;;;;;;;;;5102323;27;20036;-57
2021/06/16 12:58:27;;;;;;;10.45;6.25;;;;;;;;;;5104974;27;20498;-57
2021/06/16 13:00:56;;;;;;;13.25;7.93;;;;;;;;;;5100303;28;20012;-57
2021/06/16 13:03:24;;;;;;;15.07;8.48;;;;;;;;;;5101264;28;20083;-58
2021/06/16 13:06:03;;;;;;;35.53;11.70;;;;;;;;;;5103351;28;20486;-57
2021/06/16 13:08:37;;;;;;;25.88;9.38;;;;;;;;;;5105169;27;20015;-56
2021/06/16 13:11:21;;;;;;;11.35;6.38;;;;;;;;;;5098688;28;20024;-55
2021/06/16 13:13:47;;;;;;;16.65;7.28;;;;;;;;;;5100761;28;20153;-56
2021/06/16 13:16:23;;;;;;;54.60;19.75;;;;;;;;;;5101939;28;20542;-56
2021/06/16 13:18:49;;;;;;;17.63;6.47;;;;;;;;;;5102003;28;20016;-54
2021/06/16 13:21:14;;;;;;;33.17;10.57;;;;;;;;;;5104526;28;20111;-55
2021/06/16 13:23:49;;;;;;;14.23;8.45;;;;;;;;;;5098771;28;20478;-54
2021/06/16 13:26:14;;;;;;;41.05;16.55;;;;;;;;;;5100438;28;20089;-54
2021/06/16 13:28:40;;;;;;;8.32;6.15;;;;;;;;;;5104532;27;20534;-54
2021/06/16 13:31:15;;;;;;;8.43;5.88;;;;;;;;;;5102904;28;20024;-54
2021/06/16 13:33:40;;;;;;;28.92;10.10;;;;;;;;;;5097923;28;20016;-54
2021/06/16 13:36:07;;;;;;;26.58;6.65;;;;;;;;;;5101726;28;20032;-56
2021/06/16 13:38:32;;;;;;;75.00;22.50;;;;;;;;;;5090534;28;20015;-55
2021/06/16 13:40:58;;;;;;;26.40;14.25;;;;;;;;;;5098319;28;20562;-55
2021/06/16 13:43:24;;;;;;;77.22;22.63;;;;;;;;;;5096038;28;20040;-56
2021/06/16 13:45:50;;;;;;;25.85;10.05;;;;;;;;;;5095671;28;20309;-56
2021/06/16 13:48:15;;;;;;;17.83;7.82;;;;;;;;;;5105172;28;20023;-56
2021/06/16 13:50:41;;;;;;;16.08;6.53;;;;;;;;;;5099798;27;20052;-56
2021/06/16 13:53:06;;;;;;;32.33;9.80;;;;;;;;;;5101655;27;20020;-55
2021/06/16 13:55:31;;;;;;;9.40;6.75;;;;;;;;;;5102215;27;20429;-53
2021/06/16 13:57:58;;;;;;;14.57;5.05;;;;;;;;;;5103014;27;20020;-55
2021/06/16 14:00:23;;;;;;;5.15;4.65;;;;;;;;;;5103269;27;20044;-59
2021/06/16 14:02:49;;;;;;;10.82;4.38;;;;;;;;;;5102098;27;20019;-57
2021/06/16 14:05:14;;;;;;;9.25;4.05;;;;;;;;;;5099539;27;20027;-58
2021/06/16 14:07:40;;;;;;;20.05;5.55;;;;;;;;;;5101588;27;20075;-52
2021/06/16 14:10:07;;;;;;;20.30;5.43;;;;;;;;;;5101908;27;20047;-56
2021/06/16 14:12:32;;;;;;;10.57;5.50;;;;;;;;;;5105954;27;20024;-56
2021/06/16 14:14:57;;;;;;;5.72;3.08;;;;;;;;;;5100273;27;20020;-53
2021/06/16 14:17:23;;;;;;;11.35;4.82;;;;;;;;;;5101054;27;20024;-47
2021/06/16 14:19:48;;;;;;;8.45;4.03;;;;;;;;;;5099303;27;20030;-51
2021/06/16 14:22:13;;;;;;;12.60;5.65;;;;;;;;;;5104496;27;20040;-57
2021/06/16 14:24:39;;;;;;;21.30;8.60;;;;;;;;;;5104340;27;20165;-58
2021/06/16 14:27:05;;;;;;;8.80;5.00;;;;;;;;;;5103696;27;20487;-59
2021/06/16 14:29:30;;;;;;;10.82;5.40;;;;;;;;;;5101765;27;20027;-60
2021/06/16 14:31:55;;;;;;;6.03;4.28;;;;;;;;;;5101914;27;20434;-55
2021/06/16 14:34:21;;;;;;;8.57;6.20;;;;;;;;;;5100637;27;20489;-53
2021/06/16 14:36:46;;;;;;;11.60;5.57;;;;;;;;;;5102295;27;20114;-52
2021/06/16 14:39:14;;;;;;;10.70;7.07;;;;;;;;;;5106369;27;20019;-57